Time;durP1;ratioP1;P1;durP2;ratioP2;P2;SDS_P1;SDS_P2;PMS_P1;PMS_P2;Temp;Humidity;BMP_temperature;BMP_pressure;BME280_temperature;BME280_humidity;BME280_pressure;Samples;Min_cycle;Max_cycle;Signal;HPM_P1;HPM_P2
2021/12/01 00:00:55;;;;;;;25.40;12.55;;;1.60;99.90;;;;;;5073392;28;20024;-82
2021/12/01 00:03:21;;;;;;;23.00;11.43;;;1.50;99.90;;;;;;5074759;28;20036;-82
2021/12/01 00:05:47;;;;;;;25.95;11.82;;;1.50;99.90;;;;;;5078272;28;20040;-84
2021/12/01 00:08:13;;;;;;;25.85;11.90;;;1.50;99.90;;;;;;5054567;28;20044;-84
2021/12/01 00:10:44;;;;;;;28.52;11.95;;;1.40;99.90;;;;;;5072815;28;20025;-82
2021/12/01 00:13:13;;;;;;;22.67;11.45;;;1.40;99.90;;;;;;5079357;28;20112;-82
2021/12/01 00:15:43;;;;;;;27.50;12.23;;;1.40;99.90;;;;;;5072694;28;20025;-82
2021/12/01 00:18:10;;;;;;;22.35;11.75;;;1.40;99.90;;;;;;5090835;28;20032;-83
2021/12/01 00:20:39;;;;;;;22.90;10.48;;;1.30;99.90;;;;;;5072434;28;20036;-82
2021/12/01 00:23:08;;;;;;;21.70;10.05;;;1.30;99.90;;;;;;5072338;28;20024;-83
2021/12/01 00:25:39;;;;;;;20.85;9.48;;;1.20;99.90;;;;;;5072509;28;20098;-82
2021/12/01 00:28:05;;;;;;;21.92;9.23;;;1.20;99.90;;;;;;5060319;28;20119;-82
2021/12/01 00:30:31;;;;;;;18.55;9.88;;;1.20;99.90;;;;;;5078436;28;20570;-83
2021/12/01 00:32:57;;;;;;;21.23;9.18;;;1.30;99.90;;;;;;5070831;28;20024;-83
2021/12/01 00:35:24;;;;;;;20.33;8.93;;;1.30;99.90;;;;;;5074477;28;20048;-82
2021/12/01 00:37:50;;;;;;;18.60;8.85;;;1.30;99.90;;;;;;5053946;28;20032;-82
2021/12/01 00:40:17;;;;;;;15.40;9.63;;;1.20;99.90;;;;;;5088265;28;20379;-82
2021/12/01 00:42:44;;;;;;;27.05;9.82;;;1.10;99.90;;;;;;5060450;28;20032;-82
2021/12/01 00:45:22;;;;;;;20.98;9.20;;;1.10;99.90;;;;;;5074765;28;20020;-84
2021/12/01 00:47:50;;;;;;;19.30;8.98;;;1.20;99.90;;;;;;5070584;28;20352;-83
2021/12/01 00:50:32;;;;;;;20.92;8.93;;;1.10;99.90;;;;;;5062333;28;20552;-83
2021/12/01 00:53:04;;;;;;;21.08;9.13;;;1.40;99.90;;;;;;5071434;28;20017;-82
2021/12/01 00:55:31;;;;;;;17.38;8.82;;;1.30;99.90;;;;;;5083703;28;20146;-83
2021/12/01 00:57:57;;;;;;;19.50;9.35;;;1.20;99.90;;;;;;5075559;28;20021;-81
2021/12/01 01:00:25;;;;;;;17.25;8.95;;;1.10;99.90;;;;;;5078393;28;20472;-82
2021/12/01 01:02:53;;;;;;;18.98;9.43;;;1.10;99.90;;;;;;5076591;28;20023;-81
2021/12/01 01:05:19;;;;;;;20.83;10.27;;;1.10;99.90;;;;;;5076447;28;20052;-82
2021/12/01 01:07:46;;;;;;;16.60;9.48;;;1.10;99.90;;;;;;5076880;28;20033;-84
2021/12/01 01:18:20;;;;;;;21.65;11.00;;;1.10;99.90;;;;;;5074412;28;20032;-82
2021/12/01 01:20:46;;;;;;;20.42;10.50;;;0.90;99.90;;;;;;5075669;28;20017;-82
2021/12/01 01:23:13;;;;;;;25.45;12.00;;;0.80;99.90;;;;;;5057151;28;20102;-83
2021/12/01 01:25:39;;;;;;;31.02;11.15;;;0.70;99.90;;;;;;5071318;28;20027;-82
2021/12/01 01:28:05;;;;;;;18.55;10.48;;;0.80;99.90;;;;;;5074982;28;20479;-83
2021/12/01 01:30:32;;;;;;;29.27;11.40;;;0.70;99.90;;;;;;5076389;28;20032;-82
2021/12/01 01:32:59;;;;;;;29.27;12.57;;;0.70;99.90;;;;;;5081130;28;20059;-84
2021/12/01 01:35:26;;;;;;;32.60;11.68;;;0.70;99.90;;;;;;5078863;28;20487;-82
2021/12/01 01:37:52;;;;;;;22.77;10.35;;;0.70;99.90;;;;;;5075431;28;20086;-83
2021/12/01 01:40:18;;;;;;;27.63;12.55;;;0.70;99.90;;;;;;5075747;28;20503;-81
2021/12/01 01:42:45;;;;;;;33.67;12.10;;;0.60;99.90;;;;;;5062923;28;20503;-82
2021/12/01 01:45:11;;;;;;;38.70;13.20;;;0.80;99.90;;;;;;5056681;28;20044;-81
2021/12/01 01:47:59;;;;;;;40.70;16.02;;;0.80;99.90;;;;;;5074515;28;20036;-82
2021/12/01 01:50:39;;;;;;;40.55;15.40;;;0.80;99.90;;;;;;5075517;28;20028;-82
2021/12/01 01:53:07;;;;;;;47.42;16.35;;;1.00;99.90;;;;;;5062037;28;20028;-84
2021/12/01 01:55:39;;;;;;;58.05;18.20;;;1.00;99.90;;;;;;5079897;28;20456;-82
2021/12/01 01:58:05;;;;;;;53.83;19.27;;;0.80;99.90;;;;;;5077778;28;20091;-82
2021/12/01 02:00:35;;;;;;;59.05;18.13;;;0.80;99.90;;;;;;5077399;28;20107;-84
2021/12/01 02:03:01;;;;;;;36.78;16.00;;;0.90;99.90;;;;;;5078647;28;20491;-84
2021/12/01 02:05:28;;;;;;;60.33;21.15;;;0.80;99.90;;;;;;5073982;28;20045;-82
2021/12/01 02:07:54;;;;;;;48.05;18.90;;;0.80;99.90;;;;;;5065982;28;20447;-83
2021/12/01 02:10:21;;;;;;;62.72;22.48;;;0.70;99.90;;;;;;5055702;28;20024;-84
2021/12/01 02:12:48;;;;;;;63.00;22.33;;;0.70;99.90;;;;;;5074921;28;20049;-83
2021/12/01 02:15:14;;;;;;;48.13;20.33;;;0.80;99.90;;;;;;5071453;28;20094;-83
2021/12/01 02:17:40;;;;;;;58.60;21.27;;;0.80;99.90;;;;;;5074168;28;20464;-83
2021/12/01 02:20:20;;;;;;;72.95;25.98;;;0.70;99.90;;;;;;5055513;28;20028;-83
2021/12/01 02:22:47;;;;;;;60.33;23.15;;;0.70;99.90;;;;;;5057294;28;20052;-83
2021/12/01 02:25:13;;;;;;;62.70;23.10;;;0.70;99.90;;;;;;5071101;28;20463;-83
2021/12/01 02:27:39;;;;;;;66.65;24.73;;;0.80;99.90;;;;;;5054215;28;20021;-83
2021/12/01 02:30:07;;;;;;;79.95;26.02;;;0.80;99.90;;;;;;5076267;28;20115;-83
2021/12/01 02:32:33;;;;;;;73.57;26.08;;;0.80;99.90;;;;;;5073662;28;20029;-83
2021/12/01 02:34:59;;;;;;;81.40;28.77;;;0.80;99.90;;;;;;5057259;28;20097;-83
2021/12/01 02:37:25;;;;;;;73.80;28.98;;;0.90;99.90;;;;;;5054926;28;20484;-83
2021/12/01 02:39:52;;;;;;;82.75;30.48;;;1.00;99.90;;;;;;5053508;28;20029;-82
2021/12/01 02:42:21;;;;;;;99.00;32.72;;;1.00;99.90;;;;;;5050932;28;20404;-83
2021/12/01 02:44:47;;;;;;;106.53;37.00;;;1.20;99.90;;;;;;5032629;28;20021;-83
2021/12/01 02:47:14;;;;;;;95.82;35.38;;;1.30;99.90;;;;;;5051618;28;20396;-82
2021/12/01 02:49:41;;;;;;;96.03;38.95;;;1.40;99.90;;;;;;5030557;28;20032;-81
2021/12/01 02:52:07;;;;;;;87.78;37.10;;;1.40;99.90;;;;;;5055629;28;20086;-83
2021/12/01 02:54:33;;;;;;;91.63;37.65;;;1.50;99.90;;;;;;5063597;28;20082;-83
2021/12/01 02:57:06;;;;;;;78.53;30.17;;;1.60;99.90;;;;;;5062198;28;20111;-85
2021/12/01 02:59:32;;;;;;;81.32;29.60;;;1.90;99.90;;;;;;5036867;28;20029;-85
2021/12/01 03:02:00;;;;;;;66.82;27.83;;;1.90;99.90;;;;;;5027178;28;20060;-83
2021/12/01 03:04:26;;;;;;;58.85;25.00;;;2.20;99.90;;;;;;5049169;28;20589;-84
2021/12/01 03:06:53;;;;;;;68.97;26.77;;;2.30;99.90;;;;;;5054067;28;20174;-86
2021/12/01 03:09:19;;;;;;;60.33;29.27;;;2.50;99.90;;;;;;5048238;28;20029;-82
2021/12/01 03:11:45;;;;;;;67.00;28.63;;;2.60;99.90;;;;;;5030303;28;20502;-82
2021/12/01 03:14:15;;;;;;;73.32;32.15;;;3.70;99.90;;;;;;5023815;28;20460;-83
2021/12/01 03:16:43;;;;;;;70.55;30.60;;;4.30;99.90;;;;;;5051472;28;20502;-85
2021/12/01 03:19:09;;;;;;;65.28;30.77;;;4.30;99.90;;;;;;5053439;28;20984;-85
2021/12/01 03:21:39;;;;;;;69.78;33.63;;;4.10;99.90;;;;;;5051915;28;20100;-83
2021/12/01 03:24:06;;;;;;;98.50;45.40;;;4.10;99.90;;;;;;5039312;28;20383;-83
2021/12/01 03:26:33;;;;;;;98.97;42.55;;;4.70;99.90;;;;;;5051099;28;20043;-84
2021/12/01 03:29:00;;;;;;;103.88;45.35;;;5.20;99.90;;;;;;5021257;28;20033;-84
2021/12/01 03:31:26;;;;;;;107.20;48.88;;;5.20;99.90;;;;;;5051448;28;20028;-84
2021/12/01 03:33:52;;;;;;;114.95;50.50;;;5.20;99.90;;;;;;5034128;28;20033;-82
2021/12/01 03:36:18;;;;;;;133.80;60.63;;;5.10;99.90;;;;;;5038892;28;20037;-82
2021/12/01 03:38:45;;;;;;;122.35;65.68;;;5.20;99.90;;;;;;5048026;28;20028;-85
2021/12/01 03:41:11;;;;;;;132.05;65.80;;;5.30;99.90;;;;;;5046184;28;20111;-84
2021/12/01 03:43:37;;;;;;;124.93;64.70;;;5.20;99.90;;;;;;5046804;28;20068;-82
2021/12/01 03:46:03;;;;;;;97.05;52.15;;;5.30;99.90;;;;;;5027080;28;20391;-81
2021/12/01 03:48:29;;;;;;;86.75;44.30;;;5.30;99.90;;;;;;5023874;28;20029;-82
2021/12/01 03:50:56;;;;;;;86.43;43.47;;;5.40;99.90;;;;;;5046052;28;20040;-82
2021/12/01 03:53:24;;;;;;;70.70;36.90;;;5.40;99.90;;;;;;5045326;28;20021;-83
2021/12/01 03:55:50;;;;;;;73.63;38.30;;;5.50;99.90;;;;;;5006012;28;20074;-82
2021/12/01 03:58:17;;;;;;;68.93;36.10;;;5.50;99.90;;;;;;5033772;28;20029;-83
2021/12/01 04:00:43;;;;;;;64.00;35.25;;;5.60;99.90;;;;;;5017121;28;20033;-82
2021/12/01 04:03:10;;;;;;;62.67;32.50;;;5.80;99.90;;;;;;5038986;28;20060;-81
2021/12/01 04:05:36;;;;;;;62.63;32.75;;;5.90;99.90;;;;;;5048740;28;20021;-84
2021/12/01 04:08:05;;;;;;;60.58;33.40;;;6.20;99.90;;;;;;5025272;28;20033;-83
2021/12/01 04:10:31;;;;;;;66.63;31.63;;;6.40;99.90;;;;;;5025007;28;20548;-82
2021/12/01 04:13:00;;;;;;;58.75;31.23;;;6.50;99.90;;;;;;5045414;28;20057;-84
2021/12/01 04:15:27;;;;;;;60.03;30.45;;;6.40;99.90;;;;;;5030611;28;20028;-83
2021/12/01 04:17:53;;;;;;;58.65;29.05;;;6.50;99.90;;;;;;5052277;28;20039;-84
2021/12/01 04:20:20;;;;;;;50.22;26.52;;;6.60;99.90;;;;;;5038672;28;20248;-82
2021/12/01 04:22:48;;;;;;;59.33;25.77;;;7.00;99.90;;;;;;5036519;28;20041;-83
2021/12/01 04:25:14;;;;;;;56.47;23.65;;;7.30;99.90;;;;;;5045999;28;20029;-84
2021/12/01 04:27:40;;;;;;;48.25;20.95;;;7.50;99.90;;;;;;5029433;28;20388;-83
2021/12/01 04:30:13;;;;;;;43.22;19.48;;;7.80;99.90;;;;;;5032685;28;20515;-86
2021/12/01 04:32:39;;;;;;;27.17;14.15;;;8.10;99.90;;;;;;5044131;28;20024;-81
2021/12/01 04:35:08;;;;;;;25.67;12.00;;;8.20;96.20;;;;;;5045845;28;20049;-82
2021/12/01 04:37:38;;;;;;;29.88;10.70;;;8.50;93.20;;;;;;5045636;28;20041;-83
2021/12/01 04:40:09;;;;;;;19.70;9.35;;;8.50;90.00;;;;;;5024527;28;20498;-81
2021/12/01 04:42:35;;;;;;;38.17;15.40;;;8.70;87.20;;;;;;5043971;28;20021;-84
2021/12/01 04:45:14;;;;;;;;;;;;;;;;;;;;;
2021/12/01 04:47:50;;;;;;;24.58;10.88;;;9.10;82.60;;;;;;5045679;28;20360;-82
2021/12/01 04:50:18;;;;;;;21.27;8.88;;;9.10;78.10;;;;;;5025504;28;20037;-83
2021/12/01 04:52:44;;;;;;;18.42;7.95;;;9.00;77.80;;;;;;5047377;28;20039;-82
2021/12/01 04:55:11;;;;;;;24.92;11.27;;;9.10;76.60;;;;;;5051788;28;20114;-82
2021/12/01 04:57:42;;;;;;;26.98;13.05;;;9.40;74.20;;;;;;5048052;28;20032;-84
2021/12/01 05:00:12;;;;;;;36.38;16.05;;;9.30;75.60;;;;;;5045586;28;20036;-83
2021/12/01 05:02:39;;;;;;;30.00;16.00;;;9.50;75.80;;;;;;5045766;28;20033;-83
2021/12/01 05:05:05;;;;;;;38.67;20.10;;;9.50;76.40;;;;;;5047900;28;20089;-83
2021/12/01 05:07:35;;;;;;;42.03;21.25;;;9.50;76.00;;;;;;5034146;28;21366;-83
2021/12/01 05:10:07;;;;;;;46.83;25.52;;;9.50;75.30;;;;;;5054579;28;20029;-82
2021/12/01 05:12:35;;;;;;;52.05;25.17;;;9.50;77.50;;;;;;5050748;28;20059;-84
2021/12/01 05:15:01;;;;;;;39.85;21.33;;;9.50;77.60;;;;;;5049556;28;20028;-83
2021/12/01 05:17:27;;;;;;;36.75;18.23;;;9.60;75.50;;;;;;5037287;28;21146;-84
2021/12/01 05:19:57;;;;;;;48.30;22.80;;;9.60;73.60;;;;;;5048310;28;20067;-84
2021/12/01 05:22:23;;;;;;;50.35;24.10;;;9.70;75.30;;;;;;5033685;28;20028;-83
2021/12/01 05:24:49;;;;;;;47.15;25.42;;;9.90;76.00;;;;;;5036602;28;20024;-84
2021/12/01 05:27:15;;;;;;;49.00;26.20;;;9.90;75.50;;;;;;5034347;28;20051;-85
2021/12/01 05:29:41;;;;;;;61.58;32.08;;;9.90;76.30;;;;;;5030811;28;20025;-84
2021/12/01 05:32:08;;;;;;;73.32;40.33;;;10.00;76.20;;;;;;5047013;28;20040;-83
2021/12/01 05:34:34;;;;;;;95.13;49.58;;;10.00;80.80;;;;;;5059747;28;20045;-83
2021/12/01 05:37:00;;;;;;;104.35;55.42;;;9.80;85.10;;;;;;5052828;28;20066;-83
2021/12/01 05:39:28;;;;;;;111.47;59.38;;;9.90;88.60;;;;;;5073365;28;20089;-82
2021/12/01 05:41:55;;;;;;;100.22;55.78;;;9.80;90.30;;;;;;5070598;28;21358;-83
2021/12/01 05:44:22;;;;;;;84.70;46.63;;;9.90;90.90;;;;;;5053814;28;20363;-82
2021/12/01 05:46:49;;;;;;;56.05;30.92;;;9.80;86.90;;;;;;5072621;28;20031;-84
2021/12/01 05:49:16;;;;;;;54.47;27.83;;;10.10;81.40;;;;;;5073629;28;20025;-84
2021/12/01 05:51:44;;;;;;;43.33;23.40;;;10.10;81.40;;;;;;5070996;28;20115;-83
2021/12/01 05:54:11;;;;;;;35.10;21.48;;;10.20;77.90;;;;;;5071441;28;20025;-85
2021/12/01 05:56:37;;;;;;;20.13;9.98;;;10.30;77.70;;;;;;5072492;28;20025;-84
2021/12/01 05:59:03;;;;;;;15.35;9.13;;;10.30;72.40;;;;;;5055189;28;20039;-84
2021/12/01 06:01:30;;;;;;;17.65;8.85;;;10.20;72.20;;;;;;5070797;28;20021;-81
2021/12/01 06:03:56;;;;;;;19.77;11.38;;;10.40;72.10;;;;;;5055065;28;20033;-85
2021/12/01 06:06:22;;;;;;;18.98;8.80;;;10.30;71.90;;;;;;5074306;28;20032;-83
2021/12/01 06:08:50;;;;;;;17.08;8.43;;;10.40;72.40;;;;;;5055043;28;20031;-83
2021/12/01 06:11:20;;;;;;;47.95;25.08;;;10.50;71.60;;;;;;5068752;28;20039;-82
2021/12/01 06:13:47;;;;;;;11.90;7.10;;;10.40;72.50;;;;;;5073670;28;20024;-82
2021/12/01 06:16:19;;;;;;;20.33;9.50;;;10.60;70.20;;;;;;5054753;28;20055;-85
2021/12/01 06:19:00;;;;;;;20.63;8.77;;;10.70;70.00;;;;;;5069760;28;20035;-82
2021/12/01 06:21:26;;;;;;;20.73;7.78;;;10.70;69.70;;;;;;5051509;28;20040;-82
2021/12/01 06:23:56;;;;;;;12.30;6.78;;;11.00;67.70;;;;;;5047521;28;20040;-82
2021/12/01 06:26:33;;;;;;;18.08;7.75;;;11.10;65.00;;;;;;5034068;28;20525;-82
2021/12/01 06:29:00;;;;;;;17.30;9.23;;;11.20;64.80;;;;;;5052811;28;20390;-83
2021/12/01 06:31:29;;;;;;;20.25;9.50;;;11.20;64.60;;;;;;5052982;28;20032;-86
2021/12/01 06:33:58;;;;;;;18.90;9.30;;;11.20;67.00;;;;;;5047322;28;20049;-84
2021/12/01 06:36:25;;;;;;;18.50;9.30;;;11.20;63.20;;;;;;5048173;28;20017;-83
2021/12/01 06:38:51;;;;;;;15.38;8.43;;;11.20;65.60;;;;;;5053827;28;20037;-85
2021/12/01 06:41:17;;;;;;;21.00;9.82;;;11.20;67.50;;;;;;5048102;28;20132;-84
2021/12/01 06:43:44;;;;;;;27.80;13.20;;;11.20;65.10;;;;;;5049770;28;20057;-85
2021/12/01 06:46:11;;;;;;;24.65;12.55;;;11.40;63.80;;;;;;5049351;28;20484;-87
2021/12/01 06:48:37;;;;;;;29.10;12.50;;;11.50;63.20;;;;;;5048775;28;20033;-85
2021/12/01 06:51:03;;;;;;;30.55;12.43;;;11.60;62.10;;;;;;5047464;28;20017;-84
2021/12/01 06:53:30;;;;;;;27.98;13.05;;;11.50;63.20;;;;;;5045769;28;20032;-84
2021/12/01 06:55:56;;;;;;;27.95;12.05;;;11.40;62.70;;;;;;5048272;28;20491;-84
2021/12/01 06:58:25;;;;;;;22.58;10.90;;;11.50;61.00;;;;;;5051788;28;21282;-82
2021/12/01 07:00:54;;;;;;;22.13;10.82;;;11.40;65.40;;;;;;5028576;28;20025;-83
2021/12/01 07:03:21;;;;;;;19.02;10.00;;;11.30;64.80;;;;;;5053367;28;20099;-84
2021/12/01 07:05:49;;;;;;;20.42;8.10;;;11.20;64.00;;;;;;5017346;28;20458;-84
2021/12/01 07:08:17;;;;;;;23.27;8.88;;;11.10;61.00;;;;;;5032807;28;20029;-85
2021/12/01 07:10:43;;;;;;;21.75;8.13;;;11.20;58.30;;;;;;5035277;28;20154;-83
2021/12/01 07:13:12;;;;;;;18.98;8.15;;;11.30;59.00;;;;;;5055618;28;20024;-83
2021/12/01 07:15:38;;;;;;;21.38;7.97;;;11.40;58.30;;;;;;5059819;28;20028;-83
2021/12/01 07:18:04;;;;;;;11.95;5.80;;;11.40;59.60;;;;;;5063772;28;20029;-83
2021/12/01 07:20:31;;;;;;;13.70;6.50;;;11.90;56.70;;;;;;5062475;28;20407;-85
2021/12/01 07:22:58;;;;;;;15.10;5.32;;;12.10;54.20;;;;;;5068513;28;20016;-83
2021/12/01 07:25:24;;;;;;;10.05;4.82;;;12.10;54.60;;;;;;5033113;28;20032;-85
2021/12/01 07:27:50;;;;;;;12.43;5.47;;;12.00;55.00;;;;;;5061353;28;20078;-84
2021/12/01 07:30:17;;;;;;;11.90;4.78;;;11.90;57.00;;;;;;5060106;28;20039;-83
2021/12/01 07:32:43;;;;;;;8.10;4.63;;;12.10;54.40;;;;;;5058577;28;20029;-83
2021/12/01 07:35:13;;;;;;;11.00;5.18;;;12.10;53.50;;;;;;5040676;28;20043;-83
2021/12/01 07:37:39;;;;;;;12.85;5.55;;;12.00;55.20;;;;;;5065046;28;20024;-83
2021/12/01 07:40:11;;;;;;;11.75;5.13;;;12.10;54.50;;;;;;5066956;28;20060;-84
2021/12/01 07:42:38;;;;;;;11.90;5.85;;;12.20;52.90;;;;;;5047269;28;20020;-83
2021/12/01 07:45:05;;;;;;;16.23;5.70;;;12.20;54.20;;;;;;5062426;28;20028;-83
2021/12/01 07:47:32;;;;;;;14.10;6.43;;;12.10;55.00;;;;;;5068043;28;20032;-83
2021/12/01 07:49:58;;;;;;;13.18;6.43;;;12.00;54.90;;;;;;5047500;28;20028;-83
2021/12/01 07:52:28;;;;;;;23.02;11.85;;;12.00;54.10;;;;;;5050919;28;20039;-84
2021/12/01 07:54:56;;;;;;;26.77;13.40;;;12.10;53.50;;;;;;5045990;28;20028;-83
2021/12/01 07:57:22;;;;;;;29.55;16.13;;;12.10;56.60;;;;;;5046756;28;20024;-84
2021/12/01 07:59:49;;;;;;;27.13;15.80;;;12.10;57.50;;;;;;5060020;28;20035;-84
2021/12/01 08:02:15;;;;;;;36.35;20.80;;;12.10;57.10;;;;;;5039902;28;20502;-84
2021/12/01 08:04:41;;;;;;;44.47;26.42;;;12.20;59.70;;;;;;5045890;28;20380;-84
2021/12/01 08:07:13;;;;;;;51.88;28.40;;;12.10;62.00;;;;;;5056588;28;20543;-84
2021/12/01 08:09:39;;;;;;;66.47;32.63;;;12.10;63.80;;;;;;5033294;28;20044;-84
2021/12/01 08:12:07;;;;;;;62.92;34.78;;;12.00;66.20;;;;;;5050853;28;20117;-83
2021/12/01 08:14:33;;;;;;;58.92;33.10;;;11.80;66.90;;;;;;5057106;28;20104;-84
2021/12/01 08:17:00;;;;;;;52.70;32.55;;;11.80;68.30;;;;;;5064266;28;20032;-84
2021/12/01 08:19:26;;;;;;;52.85;31.35;;;11.80;65.50;;;;;;5059998;28;20056;-84
2021/12/01 08:21:52;;;;;;;56.42;32.88;;;11.70;66.90;;;;;;5065030;28;20107;-85
2021/12/01 08:24:19;;;;;;;62.10;33.88;;;11.60;68.30;;;;;;5056236;28;20479;-82
2021/12/01 08:26:46;;;;;;;53.25;32.63;;;11.70;69.30;;;;;;5060140;28;20023;-84
2021/12/01 08:29:13;;;;;;;57.72;32.80;;;11.60;71.30;;;;;;5061556;28;20035;-83
2021/12/01 08:31:39;;;;;;;53.08;32.15;;;11.50;70.60;;;;;;5043139;28;20037;-82
2021/12/01 08:34:06;;;;;;;52.42;32.53;;;11.50;70.80;;;;;;5060766;28;20083;-83
2021/12/01 08:36:33;;;;;;;58.45;33.22;;;11.50;72.60;;;;;;5059202;28;20020;-83
2021/12/01 08:38:59;;;;;;;58.42;32.95;;;11.60;71.70;;;;;;5060386;28;20024;-84
2021/12/01 08:41:28;;;;;;;56.80;33.00;;;11.60;71.30;;;;;;5042052;28;20068;-83
2021/12/01 08:43:54;;;;;;;58.97;33.70;;;11.60;72.60;;;;;;5062086;28;20025;-84
2021/12/01 08:46:36;;;;;;;57.72;34.83;;;11.60;73.30;;;;;;5066801;28;20037;-83
2021/12/01 08:49:27;;;;;;;64.28;35.28;;;11.60;71.30;;;;;;5021615;28;20036;-83
2021/12/01 08:51:54;;;;;;;57.80;32.85;;;11.50;76.40;;;;;;5048041;28;20028;-83
2021/12/01 08:54:20;;;;;;;55.95;32.10;;;11.40;74.40;;;;;;5046872;28;20028;-82
2021/12/01 08:56:57;;;;;;;57.58;32.45;;;11.40;72.90;;;;;;5045612;28;20083;-84
2021/12/01 08:59:52;;;;;;;66.88;32.35;;;11.20;73.90;;;;;;5042842;28;20036;-82
2021/12/01 09:02:18;;;;;;;51.03;27.80;;;11.10;72.40;;;;;;5027339;28;20041;-82
2021/12/01 09:04:50;;;;;;;51.83;29.42;;;11.20;70.60;;;;;;5039906;28;20407;-82
2021/12/01 09:07:20;;;;;;;45.95;27.17;;;11.20;70.50;;;;;;5037671;28;20041;-83
2021/12/01 09:09:47;;;;;;;44.17;26.65;;;11.10;70.00;;;;;;5040795;28;20078;-82
2021/12/01 09:12:19;;;;;;;45.97;24.15;;;11.10;69.40;;;;;;5036018;28;20075;-84
2021/12/01 09:14:46;;;;;;;41.95;24.35;;;11.00;69.40;;;;;;5018619;28;20029;-81
2021/12/01 09:17:12;;;;;;;42.08;25.50;;;11.00;71.80;;;;;;5035046;28;20029;-83
2021/12/01 09:19:41;;;;;;;47.03;25.58;;;11.00;72.10;;;;;;5017954;28;20120;-83
2021/12/01 09:22:07;;;;;;;40.10;24.65;;;10.90;73.10;;;;;;5038787;28;20022;-83
2021/12/01 09:24:34;;;;;;;40.42;23.80;;;10.90;71.60;;;;;;5038208;28;20036;-83
2021/12/01 09:27:00;;;;;;;45.33;25.02;;;11.00;71.30;;;;;;5018335;28;20391;-83
2021/12/01 09:29:27;;;;;;;43.55;23.40;;;11.10;71.10;;;;;;5012672;28;20033;-83
2021/12/01 09:31:56;;;;;;;41.13;22.85;;;11.00;72.00;;;;;;5030529;28;20040;-85
2021/12/01 09:34:22;;;;;;;41.17;22.80;;;11.10;71.30;;;;;;5018404;28;20140;-84
2021/12/01 09:36:49;;;;;;;42.33;22.25;;;11.20;72.50;;;;;;5042462;28;20032;-84
2021/12/01 09:39:19;;;;;;;36.17;21.05;;;11.30;72.00;;;;;;5041079;28;20365;-83
2021/12/01 09:41:45;;;;;;;45.65;22.55;;;11.10;72.70;;;;;;5024610;28;20036;-82
2021/12/01 09:44:11;;;;;;;44.08;23.58;;;11.10;74.40;;;;;;5040029;28;20032;-84
2021/12/01 09:46:38;;;;;;;41.85;23.00;;;11.00;74.00;;;;;;5021188;28;20045;-84
2021/12/01 09:49:04;;;;;;;46.80;23.48;;;10.90;74.90;;;;;;5022280;28;20105;-85
2021/12/01 09:51:30;;;;;;;38.05;22.15;;;10.90;76.20;;;;;;5026467;28;20451;-83
2021/12/01 09:53:57;;;;;;;39.53;23.13;;;10.90;75.90;;;;;;5041356;28;21299;-84
2021/12/01 09:56:25;;;;;;;42.60;23.05;;;10.70;76.00;;;;;;5044093;28;20080;-83
2021/12/01 09:58:51;;;;;;;31.55;19.33;;;10.60;76.60;;;;;;5021761;28;20025;-83
2021/12/01 10:01:20;;;;;;;31.98;18.38;;;10.50;77.30;;;;;;5038965;28;20037;-84
2021/12/01 10:03:47;;;;;;;33.20;20.20;;;10.50;77.40;;;;;;5039488;28;20024;-82
2021/12/01 10:06:17;;;;;;;36.60;19.30;;;10.50;77.40;;;;;;5025494;28;20143;-83
2021/12/01 10:08:51;;;;;;;26.60;17.55;;;10.50;79.10;;;;;;5039396;28;20029;-84
2021/12/01 10:11:21;;;;;;;28.50;16.10;;;10.40;78.00;;;;;;5040021;28;20476;-84
2021/12/01 10:13:57;;;;;;;35.10;17.58;;;10.30;78.90;;;;;;5040950;28;20037;-82
2021/12/01 10:16:28;;;;;;;27.85;16.65;;;10.10;79.70;;;;;;5039910;28;20112;-83
2021/12/01 10:18:59;;;;;;;31.88;17.35;;;10.00;79.40;;;;;;5009253;28;20025;-82
2021/12/01 10:21:33;;;;;;;31.35;16.65;;;9.90;80.50;;;;;;5013326;28;20975;-82
2021/12/01 10:24:08;;;;;;;36.80;17.10;;;9.70;83.90;;;;;;5039381;28;20033;-86
2021/12/01 10:26:40;;;;;;;30.10;16.80;;;9.60;82.40;;;;;;5041250;28;20025;-83
2021/12/01 10:29:09;;;;;;;30.85;17.20;;;9.40;83.60;;;;;;5044167;28;20828;-83
2021/12/01 10:31:36;;;;;;;30.92;17.48;;;9.40;85.00;;;;;;5046484;28;20025;-84
2021/12/01 10:34:33;;;;;;;29.30;16.48;;;9.40;85.50;;;;;;5036506;28;20104;-85
2021/12/01 10:37:22;;;;;;;29.45;15.73;;;9.30;85.40;;;;;;5040615;28;20040;-83
2021/12/01 10:40:07;;;;;;;27.15;15.95;;;9.10;85.90;;;;;;5043155;28;21031;-83
2021/12/01 10:42:34;;;;;;;27.52;15.75;;;9.00;86.20;;;;;;5025229;28;20476;-83
2021/12/01 10:45:07;;;;;;;29.88;15.32;;;9.00;86.00;;;;;;5022477;28;20090;-83
2021/12/01 10:47:43;;;;;;;33.40;17.55;;;8.90;86.10;;;;;;5044551;28;20022;-84
2021/12/01 10:50:17;;;;;;;31.88;15.43;;;8.70;90.30;;;;;;5045294;28;20055;-82
2021/12/01 10:52:52;;;;;;;30.55;16.00;;;8.70;91.40;;;;;;5030726;28;20050;-83
2021/12/01 10:55:25;;;;;;;33.83;16.05;;;8.70;89.30;;;;;;5033180;28;20527;-83
2021/12/01 10:57:58;;;;;;;33.13;17.42;;;8.50;93.30;;;;;;5051195;28;20112;-83
2021/12/01 11:00:39;;;;;;;37.90;17.98;;;8.40;94.30;;;;;;5054306;28;20029;-82
2021/12/01 11:03:20;;;;;;;31.80;18.38;;;8.40;93.70;;;;;;5055791;28;20033;-82
2021/12/01 11:06:20;;;;;;;31.02;17.55;;;8.40;93.30;;;;;;5049306;28;20372;-83
2021/12/01 11:08:57;;;;;;;47.55;22.17;;;8.50;94.00;;;;;;5040136;28;20048;-83
2021/12/01 11:11:46;;;;;;;42.80;24.83;;;8.40;94.30;;;;;;5042649;28;20154;-84
2021/12/01 11:14:16;;;;;;;51.72;24.20;;;8.20;96.30;;;;;;5023920;28;20045;-83
2021/12/01 11:16:44;;;;;;;50.15;23.88;;;8.10;98.50;;;;;;5040516;28;20025;-83
2021/12/01 11:19:11;;;;;;;47.28;26.05;;;8.00;99.90;;;;;;5039510;28;20294;-83
2021/12/01 11:21:39;;;;;;;47.08;25.65;;;7.90;99.90;;;;;;5020743;28;20040;-81
2021/12/01 11:24:08;;;;;;;53.97;28.15;;;7.90;99.90;;;;;;5041146;28;20032;-83
2021/12/01 11:26:35;;;;;;;47.92;26.73;;;7.80;99.90;;;;;;5036377;28;20064;-82
2021/12/01 11:29:08;;;;;;;51.38;28.92;;;7.60;99.90;;;;;;5042291;28;20033;-82
2021/12/01 11:31:46;;;;;;;69.28;34.63;;;7.70;99.90;;;;;;5042231;28;20021;-84
2021/12/01 11:34:15;;;;;;;55.85;30.88;;;7.70;99.90;;;;;;5015765;28;20051;-84
2021/12/01 11:36:49;;;;;;;63.75;30.63;;;7.40;99.90;;;;;;5020650;28;20033;-82
2021/12/01 11:39:19;;;;;;;62.40;31.40;;;7.50;99.90;;;;;;5020882;28;20056;-83
2021/12/01 11:41:47;;;;;;;59.55;30.85;;;7.30;99.90;;;;;;5039104;28;20032;-83
2021/12/01 11:44:15;;;;;;;74.45;36.17;;;7.50;99.90;;;;;;5040068;28;20029;-82
2021/12/01 11:46:44;;;;;;;71.28;36.33;;;7.40;99.90;;;;;;5025770;28;20029;-84
2021/12/01 11:49:13;;;;;;;85.10;45.00;;;7.30;99.90;;;;;;5041161;28;20475;-83
2021/12/01 11:51:58;;;;;;;116.93;58.35;;;7.40;99.90;;;;;;5039260;28;20078;-82
2021/12/01 11:54:27;;;;;;;90.13;49.92;;;7.80;99.90;;;;;;5039563;28;20026;-83
2021/12/01 11:56:59;;;;;;;105.78;57.15;;;7.60;99.90;;;;;;5025849;28;20029;-83
2021/12/01 11:59:36;;;;;;;115.82;54.60;;;7.60;99.90;;;;;;5040857;28;20061;-85
2021/12/01 12:02:18;;;;;;;106.57;52.05;;;7.40;99.90;;;;;;5021750;28;20535;-83
2021/12/01 12:04:52;;;;;;;94.60;46.58;;;7.20;99.90;;;;;;5020282;28;20020;-84
2021/12/01 12:07:43;;;;;;;109.45;54.25;;;7.00;99.90;;;;;;5028384;28;20136;-82
2021/12/01 12:10:15;;;;;;;109.00;55.33;;;7.00;99.90;;;;;;5023555;28;20031;-85
2021/12/01 12:12:57;;;;;;;114.00;53.97;;;7.00;99.90;;;;;;5025481;28;20032;-83
2021/12/01 12:15:40;;;;;;;128.02;62.30;;;6.80;99.90;;;;;;5027884;28;20117;-84
2021/12/01 12:18:07;;;;;;;173.13;71.13;;;7.10;99.90;;;;;;5025803;28;20025;-84
2021/12/01 12:20:49;;;;;;;165.98;68.97;;;7.30;99.90;;;;;;5025209;28;20029;-82
2021/12/01 12:23:17;;;;;;;175.73;70.05;;;7.90;99.90;;;;;;5018505;28;20029;-84
2021/12/01 12:25:53;;;;;;;162.25;66.72;;;8.00;99.90;;;;;;5045120;28;20419;-82
2021/12/01 12:28:26;;;;;;;134.80;62.95;;;7.60;99.90;;;;;;5024215;28;20377;-82
2021/12/01 12:30:56;;;;;;;225.57;109.75;;;7.30;99.90;;;;;;5045630;28;20111;-83
2021/12/01 12:33:25;;;;;;;158.50;62.58;;;7.20;99.90;;;;;;5043974;28;20020;-82
2021/12/01 12:35:53;;;;;;;164.50;64.88;;;6.90;99.90;;;;;;5041976;28;20064;-84
2021/12/01 12:38:19;;;;;;;144.13;63.15;;;6.70;99.90;;;;;;5040384;28;20044;-82
2021/12/01 12:40:58;;;;;;;150.55;63.03;;;6.50;99.90;;;;;;5040657;28;20065;-83
2021/12/01 12:43:25;;;;;;;161.32;65.15;;;6.50;99.90;;;;;;5045161;28;20476;-83
2021/12/01 12:46:05;;;;;;;167.63;67.03;;;6.40;99.90;;;;;;5014295;28;20392;-84
2021/12/01 12:48:35;;;;;;;166.95;74.57;;;6.40;99.90;;;;;;5047466;28;20028;-83
2021/12/01 12:51:12;;;;;;;168.32;71.35;;;6.30;99.90;;;;;;5043629;28;20223;-82
2021/12/01 12:54:03;;;;;;;176.98;71.70;;;6.10;99.90;;;;;;5042085;28;20027;-83